Time;durP1;ratioP1;P1;durP2;ratioP2;P2;SDS_P1;SDS_P2;PMS_P1;PMS_P2;Temp;Humidity;BMP_temperature;BMP_pressure;BME280_temperature;BME280_humidity;BME280_pressure;Samples;Min_cycle;Max_cycle;Signal;HPM_P1;HPM_P2
2021/03/19 00:02:24;;;;;;;;;;;;;;;1.52;77.46;99685.55;1792111;79;22080;-73
2021/03/19 00:04:52;;;;;;;;;;;;;;;1.54;77.52;99680.25;1787495;79;20411;-73
2021/03/19 00:07:24;;;;;;;;;;;;;;;1.54;77.57;99680.25;1795864;79;20272;-73
2021/03/19 00:09:54;;;;;;;;;;;;;;;1.54;77.61;99672.45;1795948;79;20309;-73
2021/03/19 00:12:21;;;;;;;;;;;;;;;1.54;77.71;99672.45;1777266;79;20220;-74
2021/03/19 00:14:50;;;;;;;;;;;;;;;1.55;77.75;99668.95;1795719;79;22940;-73
2021/03/19 00:17:17;;;;;;;;;;;;;;;1.55;77.79;99669.79;1787319;78;21037;-73
2021/03/19 00:19:45;;;;;;;;;;;;;;;1.57;77.87;99669.23;1785116;79;20174;-73
2021/03/19 00:22:12;;;;;;;;;;;;;;;1.57;77.90;99667.09;1780176;79;20315;-73
2021/03/19 00:24:39;;;;;;;;;;;;;;;1.55;77.98;99666.34;1799126;79;20242;-73
2021/03/19 00:27:07;;;;;;;;;;;;;;;1.53;78.04;99663.80;1786854;79;22081;-74
2021/03/19 00:29:34;;;;;;;;;;;;;;;1.55;78.07;99659.38;1788794;79;20225;-73
2021/03/19 00:32:02;;;;;;;;;;;;;;;1.55;78.12;99664.58;1786404;79;20219;-73
2021/03/19 00:34:29;;;;;;;;;;;;;;;1.57;78.11;99670.54;1768772;79;21335;-73
2021/03/19 00:36:57;;;;;;;;;;;;;;;1.57;78.17;99664.03;1781305;79;20218;-72
2021/03/19 00:39:24;;;;;;;;;;;;;;;1.55;78.22;99668.48;1775534;79;21887;-73
2021/03/19 00:41:52;;;;;;;;;;;;;;;1.54;78.28;99669.38;1784212;79;20269;-74
2021/03/19 00:44:20;;;;;;;;;;;;;;;1.52;78.30;99672.53;1790783;79;20225;-73
2021/03/19 00:46:50;;;;;;;;;;;;;;;1.51;78.36;99668.25;1796503;78;20480;-72
2021/03/19 00:49:18;;;;;;;;;;;;;;;1.52;78.42;99667.33;1789929;79;20241;-74
2021/03/19 00:51:45;;;;;;;;;;;;;;;1.54;78.41;99673.28;1766069;79;21903;-72
2021/03/19 00:54:12;;;;;;;;;;;;;;;1.55;78.48;99676.30;1793722;79;20221;-74
2021/03/19 00:56:40;;;;;;;;;;;;;;;1.54;78.49;99675.05;1779850;79;20234;-74
2021/03/19 00:59:08;;;;;;;;;;;;;;;1.54;78.49;99671.98;1787630;79;20273;-74
2021/03/19 01:01:36;;;;;;;;;;;;;;;1.53;78.51;99667.70;1779410;79;21104;-74
2021/03/19 01:04:04;;;;;;;;;;;;;;;1.54;78.59;99671.14;1778082;79;23044;-74
2021/03/19 01:06:31;;;;;;;;;;;;;;;1.52;78.61;99680.34;1782079;79;20285;-75
2021/03/19 01:08:59;;;;;;;;;;;;;;;1.50;78.67;99674.38;1791391;78;20213;-74
2021/03/19 01:11:27;;;;;;;;;;;;;;;1.48;78.74;99672.33;1788883;79;20270;-75
2021/03/19 01:13:56;;;;;;;;;;;;;;;1.46;78.80;99673.34;1795297;79;20585;-75
2021/03/19 01:16:23;;;;;;;;;;;;;;;1.46;78.87;99677.25;1779414;79;21956;-74
2021/03/19 01:18:52;;;;;;;;;;;;;;;1.47;78.86;99678.92;1785304;78;20383;-74
2021/03/19 01:21:19;;;;;;;;;;;;;;;1.48;78.94;99679.30;1789519;78;20261;-75
2021/03/19 01:23:47;;;;;;;;;;;;;;;1.44;79.00;99682.05;1788678;79;20476;-74
2021/03/19 01:26:15;;;;;;;;;;;;;;;1.43;79.04;99681.66;1789705;79;20305;-74
2021/03/19 01:28:43;;;;;;;;;;;;;;;1.44;79.10;99686.41;1785295;79;22055;-75
2021/03/19 01:31:13;;;;;;;;;;;;;;;1.45;79.11;99685.52;1773430;79;20276;-74
2021/03/19 01:33:40;;;;;;;;;;;;;;;1.45;79.13;99689.42;1785328;79;20210;-74
2021/03/19 01:36:08;;;;;;;;;;;;;;;1.44;79.21;99682.50;1774788;79;20308;-74
2021/03/19 01:38:38;;;;;;;;;;;;;;;1.42;79.25;99684.35;1777839;79;20268;-74
2021/03/19 01:41:06;;;;;;;;;;;;;;;1.41;79.32;99686.58;1782383;78;21893;-74
2021/03/19 01:43:52;;;;;;;;;;;;;;;1.41;79.34;99691.32;1798765;79;20237;-73
2021/03/19 01:46:57;;;;;;;;;;;;;;;1.42;79.36;99692.16;1792393;79;20438;-74
2021/03/19 01:50:03;;;;;;;;;;;;;;;1.41;79.41;99686.58;1787823;79;20308;-74
2021/03/19 01:53:08;;;;;;;;;;;;;;;1.42;79.43;99693.46;1785824;79;20233;-74
2021/03/19 01:56:12;;;;;;;;;;;;;;;1.42;79.44;99692.16;1785368;79;22043;-74
2021/03/19 01:59:18;;;;;;;;;;;;;;;1.45;79.48;99698.53;1782215;79;21625;-74
2021/03/19 02:02:24;;;;;;;;;;;;;;;1.43;79.51;99698.58;1776269;79;20228;-74
2021/03/19 02:05:30;;;;;;;;;;;;;;;1.42;79.54;99705.17;1786998;79;20532;-74
2021/03/19 02:08:35;;;;;;;;;;;;;;;1.41;79.58;99694.39;1788830;79;20337;-74
2021/03/19 02:11:40;;;;;;;;;;;;;;;1.40;79.62;99703.11;1782924;79;23005;-74
2021/03/19 02:14:45;;;;;;;;;;;;;;;1.39;79.65;99702.73;1780278;79;21156;-74
2021/03/19 02:17:50;;;;;;;;;;;;;;;1.38;79.71;99701.91;1796946;79;20271;-74
2021/03/19 02:20:56;;;;;;;;;;;;;;;1.38;79.71;99703.20;1781202;79;20453;-74
2021/03/19 02:24:00;;;;;;;;;;;;;;;1.38;79.73;99703.20;1792555;79;20226;-74
2021/03/19 02:27:05;;;;;;;;;;;;;;;1.39;79.77;99705.34;1778641;79;22125;-73
2021/03/19 02:30:09;;;;;;;;;;;;;;;1.38;79.81;99709.70;1778022;79;20436;-73
2021/03/19 02:32:37;;;;;;;;;;;;;;;1.36;79.84;99712.02;1786147;79;20240;-73
2021/03/19 02:35:08;;;;;;;;;;;;;;;1.34;79.89;99711.23;1777990;79;21313;-72
2021/03/19 02:37:36;;;;;;;;;;;;;;;1.32;79.91;99709.17;1778700;79;20299;-73
2021/03/19 02:40:07;;;;;;;;;;;;;;;1.32;79.92;99710.48;1785502;79;23424;-74
2021/03/19 02:42:35;;;;;;;;;;;;;;;1.31;79.97;99713.54;1774452;79;20362;-75
2021/03/19 02:45:05;;;;;;;;;;;;;;;1.31;79.98;99710.94;1729417;81;20279;-74
2021/03/19 02:47:33;;;;;;;;;;;;;;;1.32;80.00;99712.61;1742646;81;20536;-74
2021/03/19 02:50:01;;;;;;;;;;;;;;;1.32;80.00;99713.08;1752057;81;20225;-73
2021/03/19 02:52:32;;;;;;;;;;;;;;;1.31;80.04;99717.44;1731962;81;22124;-73
2021/03/19 02:54:59;;;;;;;;;;;;;;;1.30;80.04;99718.37;1701964;83;20380;-73
2021/03/19 02:57:27;;;;;;;;;;;;;;;1.29;80.06;99722.35;1712567;83;20297;-73
2021/03/19 02:59:55;;;;;;;;;;;;;;;1.28;80.08;99722.81;1706295;83;20320;-73
2021/03/19 03:02:23;;;;;;;;;;;;;;;1.28;80.13;99725.88;1730216;82;20214;-74
2021/03/19 03:04:50;;;;;;;;;;;;;;;1.29;80.12;99719.75;1720653;83;22087;-74
2021/03/19 03:07:24;;;;;;;;;;;;;;;1.27;80.17;99725.04;1745198;81;20269;-73
2021/03/19 03:09:52;;;;;;;;;;;;;;;1.27;80.18;99721.59;1723620;83;21333;-73
2021/03/19 03:12:20;;;;;;;;;;;;;;;1.28;80.19;99721.52;1681508;83;20515;-74
2021/03/19 03:14:47;;;;;;;;;;;;;;;1.28;80.23;99725.88;1752593;81;20219;-75
2021/03/19 03:17:15;;;;;;;;;;;;;;;1.29;80.21;99722.35;1700088;82;22891;-73
2021/03/19 03:19:42;;;;;;;;;;;;;;;1.29;80.22;99728.39;1715448;82;20412;-73
2021/03/19 03:22:10;;;;;;;;;;;;;;;1.30;80.22;99729.23;1714173;82;20245;-73
2021/03/19 03:24:37;;;;;;;;;;;;;;;1.29;80.24;99724.95;1715737;83;20496;-73
2021/03/19 03:27:05;;;;;;;;;;;;;;;1.29;80.28;99728.39;1739377;81;20205;-74
2021/03/19 03:29:34;;;;;;;;;;;;;;;1.30;80.29;99730.53;1754792;80;22962;-73
2021/03/19 03:32:01;;;;;;;;;;;;;;;1.29;80.29;99729.70;1726633;83;20504;-74
2021/03/19 03:34:30;;;;;;;;;;;;;;;1.30;80.33;99730.53;1758077;81;20872;-73
2021/03/19 03:36:57;;;;;;;;;;;;;;;1.29;80.36;99728.86;1733133;81;20299;-73
2021/03/19 03:39:27;;;;;;;;;;;;;;;1.28;80.37;99735.82;1757175;81;20401;-74
2021/03/19 03:41:55;;;;;;;;;;;;;;;1.27;80.38;99729.41;1753936;81;22117;-74
2021/03/19 03:44:22;;;;;;;;;;;;;;;1.25;80.44;99732.52;1748220;81;20393;-73
2021/03/19 03:46:50;;;;;;;;;;;;;;;1.23;80.47;99741.70;1740778;81;20302;-73
2021/03/19 03:49:18;;;;;;;;;;;;;;;1.23;80.52;99736.97;1755354;81;21219;-73
2021/03/19 03:51:46;;;;;;;;;;;;;;;1.20;80.54;99741.03;1757967;81;20220;-73
2021/03/19 03:54:14;;;;;;;;;;;;;;;1.19;80.61;99744.55;1750008;81;22075;-74
2021/03/19 03:56:41;;;;;;;;;;;;;;;1.19;80.64;99751.90;1753117;81;20215;-73
2021/03/19 03:59:09;;;;;;;;;;;;;;;1.18;80.69;99748.08;1740147;81;20300;-73
2021/03/19 04:01:37;;;;;;;;;;;;;;;1.19;80.73;99757.56;1733601;81;20310;-73
2021/03/19 04:04:05;;;;;;;;;;;;;;;1.18;80.76;99752.82;1747739;81;20240;-73
2021/03/19 04:06:33;;;;;;;;;;;;;;;1.20;80.76;99755.34;1745961;81;22085;-73
2021/03/19 04:09:00;;;;;;;;;;;;;;;1.20;80.81;99756.64;1760943;81;21114;-73
2021/03/19 04:11:27;;;;;;;;;;;;;;;1.19;80.81;99758.40;1749532;81;20212;-73
2021/03/19 04:13:55;;;;;;;;;;;;;;;1.21;80.84;99759.62;1730557;81;20460;-73
2021/03/19 04:16:22;;;;;;;;;;;;;;;1.21;80.85;99757.02;1742533;81;20271;-73
2021/03/19 04:18:51;;;;;;;;;;;;;;;1.23;80.88;99756.47;1754810;81;21950;-74
2021/03/19 04:21:18;;;;;;;;;;;;;;;1.26;80.89;99755.04;1730397;82;20367;-73
2021/03/19 04:23:47;;;;;;;;;;;;;;;1.26;80.88;99759.78;1747564;82;20245;-73
2021/03/19 04:26:25;;;;;;;;;;;;;;;1.29;80.90;99753.57;1742428;82;20390;-73
2021/03/19 04:28:52;;;;;;;;;;;;;;;1.28;80.92;99758.39;1725653;81;20239;-73
2021/03/19 04:31:19;;;;;;;;;;;;;;;1.26;80.92;99761.54;1726940;82;22919;-73
2021/03/19 04:33:48;;;;;;;;;;;;;;;1.27;80.95;99761.46;1751723;82;20314;-73
2021/03/19 04:36:38;;;;;;;;;;;;;;;1.29;80.96;99758.77;1742764;82;20349;-73
2021/03/19 04:39:05;;;;;;;;;;;;;;;1.31;80.99;99759.07;1731249;82;20472;-73
2021/03/19 04:41:33;;;;;;;;;;;;;;;1.32;81.01;99762.51;1729583;82;20212;-74
2021/03/19 04:44:02;;;;;;;;;;;;;;;1.32;81.02;99766.41;1736889;81;22007;-75
2021/03/19 04:46:29;;;;;;;;;;;;;;;1.32;81.02;99767.72;1729906;82;20348;-73
2021/03/19 04:48:57;;;;;;;;;;;;;;;1.32;81.01;99763.34;1749804;80;20495;-73
2021/03/19 04:51:25;;;;;;;;;;;;;;;1.34;81.02;99763.27;1749554;82;20388;-73
2021/03/19 04:53:53;;;;;;;;;;;;;;;1.35;81.00;99764.94;1754295;81;20499;-73
2021/03/19 04:56:20;;;;;;;;;;;;;;;1.32;81.02;99765.95;1742590;82;21969;-73
2021/03/19 04:58:49;;;;;;;;;;;;;;;1.32;81.03;99778.12;1753793;80;20300;-73
2021/03/19 05:01:18;;;;;;;;;;;;;;;1.30;81.07;99775.60;1690514;83;20242;-76
2021/03/19 05:03:46;;;;;;;;;;;;;;;1.28;81.11;99772.70;1761190;81;21367;-74
2021/03/19 05:06:15;;;;;;;;;;;;;;;1.26;81.15;99774.09;1730454;81;20555;-74
2021/03/19 05:08:42;;;;;;;;;;;;;;;1.31;81.20;99776.44;1750609;81;21891;-73
2021/03/19 05:11:10;;;;;;;;;;;;;;;1.35;81.24;99771.02;1749581;81;20226;-74
2021/03/19 05:13:38;;;;;;;;;;;;;;;1.37;81.24;99774.38;1759545;81;20228;-74
2021/03/19 05:16:06;;;;;;;;;;;;;;;1.38;81.24;99772.62;1761346;81;20229;-74
2021/03/19 05:18:34;;;;;;;;;;;;;;;1.41;81.24;99778.95;1726044;83;20210;-76
2021/03/19 05:21:01;;;;;;;;;;;;;;;1.44;81.24;99778.78;1746568;81;22834;-74
2021/03/19 05:23:35;;;;;;;;;;;;;;;1.46;81.23;99779.58;1738848;81;20381;-74
2021/03/19 05:26:04;;;;;;;;;;;;;;;1.49;81.22;99785.91;1739422;81;20244;-74
2021/03/19 05:28:32;;;;;;;;;;;;;;;1.50;81.21;99782.38;1754756;80;20443;-77
2021/03/19 05:30:59;;;;;;;;;;;;;;;1.53;81.22;99790.48;1761017;81;20240;-77
2021/03/19 05:33:29;;;;;;;;;;;;;;;1.59;81.24;99789.72;1734350;81;21900;-76
2021/03/19 05:35:57;;;;;;;;;;;;;;;1.66;81.26;99791.55;1710635;81;20225;-75
2021/03/19 05:38:24;;;;;;;;;;;;;;;1.67;81.16;99792.77;1748705;81;20289;-76
2021/03/19 05:40:53;;;;;;;;;;;;;;;1.67;81.14;99789.33;1754553;81;20505;-76
2021/03/19 05:43:25;;;;;;;;;;;;;;;1.69;81.12;99794.83;1738299;81;20298;-78
2021/03/19 05:46:09;;;;;;;;;;;;;;;1.73;81.11;99792.43;1763937;81;22502;-77
2021/03/19 05:48:52;;;;;;;;;;;;;;;1.76;81.10;99795.82;1733873;81;20344;-78
2021/03/19 05:51:26;;;;;;;;;;;;;;;1.81;81.11;99799.84;1737021;81;20268;-78
2021/03/19 05:53:57;;;;;;;;;;;;;;;1.88;81.09;99804.28;1752558;81;20950;-78
2021/03/19 05:56:27;;;;;;;;;;;;;;;1.95;81.08;99813.46;1736097;81;20489;-78
2021/03/19 05:58:54;;;;;;;;;;;;;;;2.02;81.08;99812.19;1760047;81;22059;-77
2021/03/19 06:01:22;;;;;;;;;;;;;;;2.07;81.01;99815.41;1743360;81;20352;-77
2021/03/19 06:03:50;;;;;;;;;;;;;;;2.11;80.91;99815.61;1725878;82;20435;-76
2021/03/19 06:06:17;;;;;;;;;;;;;;;2.15;80.83;99817.61;1748250;81;20305;-77
2021/03/19 06:08:46;;;;;;;;;;;;;;;2.19;80.83;99813.90;1744666;81;20506;-76
2021/03/19 06:11:23;;;;;;;;;;;;;;;2.26;80.79;99811.35;1738813;81;21220;-77
2021/03/19 06:14:05;;;;;;;;;;;;;;;2.32;80.77;99820.16;1755569;81;20588;-77
2021/03/19 06:16:39;;;;;;;;;;;;;;;2.32;80.49;99818.84;1738794;81;20221;-77
2021/03/19 06:19:26;;;;;;;;;;;;;;;2.23;80.20;99818.05;1761643;81;20457;-76
2021/03/19 06:22:09;;;;;;;;;;;;;;;2.17;80.21;99820.50;1743085;81;20211;-76
2021/03/19 06:24:38;;;;;;;;;;;;;;;2.19;80.28;99825.63;1724510;82;21908;-77
2021/03/19 06:27:15;;;;;;;;;;;;;;;2.20;80.20;99822.09;1725371;83;20362;-77
2021/03/19 06:29:45;;;;;;;;;;;;;;;2.20;80.19;99824.23;1727450;81;20407;-77
2021/03/19 06:32:16;;;;;;;;;;;;;;;2.20;80.18;99826.84;1755436;81;20538;-78
2021/03/19 06:35:12;;;;;;;;;;;;;;;2.28;80.23;99824.67;1745815;81;20318;-77
2021/03/19 06:37:41;;;;;;;;;;;;;;;2.33;80.20;99824.91;1755116;81;21900;-77
2021/03/19 06:40:24;;;;;;;;;;;;;;;2.42;80.25;99823.94;1740466;81;20282;-77
2021/03/19 06:42:52;;;;;;;;;;;;;;;2.53;80.19;99828.56;1742326;81;20241;-77
2021/03/19 06:45:22;;;;;;;;;;;;;;;2.62;80.21;99831.97;1739723;81;20312;-77
2021/03/19 06:47:51;;;;;;;;;;;;;;;2.70;80.03;99832.82;1741767;81;20274;-77
2021/03/19 06:50:26;;;;;;;;;;;;;;;2.67;79.72;99832.53;1722977;82;22067;-77
2021/03/19 06:53:14;;;;;;;;;;;;;;;2.64;79.62;99831.41;1689725;85;21255;-77
2021/03/19 06:55:44;;;;;;;;;;;;;;;2.63;79.49;99832.80;1690090;83;20378;-77
2021/03/19 06:58:11;;;;;;;;;;;;;;;2.64;79.26;99837.92;1742071;81;20309;-77
2021/03/19 07:00:45;;;;;;;;;;;;;;;2.62;79.21;99837.64;1734827;82;20222;-78
2021/03/19 07:03:37;;;;;;;;;;;;;;;2.64;79.23;99839.70;1741564;81;22054;-77
2021/03/19 07:06:31;;;;;;;;;;;;;;;2.65;79.21;99844.82;1733075;81;20677;-77
2021/03/19 07:09:06;;;;;;;;;;;;;;;2.67;79.17;99836.44;1719192;82;20487;-77
2021/03/19 07:12:06;;;;;;;;;;;;;;;2.69;79.06;99841.10;1735528;82;20470;-77
2021/03/19 07:15:03;;;;;;;;;;;;;;;2.68;79.04;99843.34;1708233;83;37311;-77
2021/03/19 07:18:09;;;;;;;;;;;;;;;2.76;79.17;99847.67;1685620;83;21998;-77
2021/03/19 07:21:05;;;;;;;;;;;;;;;2.86;79.09;99846.23;1713927;81;21162;-76
2021/03/19 07:24:09;;;;;;;;;;;;;;;2.91;78.83;99847.30;1713134;83;20224;-77
2021/03/19 07:26:46;;;;;;;;;;;;;;;2.91;78.74;99852.51;1731436;82;21220;-77
2021/03/19 07:29:53;;;;;;;;;;;;;;;2.91;78.50;99847.75;1692556;82;20413;-76
2021/03/19 07:33:20;;;;;;;;;;;;;;;2.91;78.49;99843.38;1720898;82;21691;-77
2021/03/19 07:36:40;;;;;;;;;;;;;;;2.93;78.31;99844.59;1727245;82;20232;-76
2021/03/19 07:39:39;;;;;;;;;;;;;;;2.98;78.29;99847.77;1718538;82;20280;-76
2021/03/19 07:42:52;;;;;;;;;;;;;;;2.97;78.02;99844.78;1684765;84;20305;-77
2021/03/19 07:45:37;;;;;;;;;;;;;;;2.95;77.95;99845.34;1713042;83;20257;-77
2021/03/19 07:48:25;;;;;;;;;;;;;;;2.95;77.88;99845.34;1713083;84;22083;-76
2021/03/19 07:51:27;;;;;;;;;;;;;;;2.96;77.85;99850.47;1742055;82;20357;-76
2021/03/19 07:54:39;;;;;;;;;;;;;;;3.00;77.88;99850.69;1698177;83;20557;-79
2021/03/19 07:57:39;;;;;;;;;;;;;;;3.10;77.84;99851.84;1706864;81;20307;-78
2021/03/19 08:00:18;;;;;;;;;;;;;;;3.13;77.49;99859.95;1705762;82;20229;-75
2021/03/19 08:03:30;;;;;;;;;;;;;;;3.06;77.24;99856.00;1702297;82;22076;-75
2021/03/19 08:06:26;;;;;;;;;;;;;;;3.03;77.35;99864.85;1716204;82;20240;-77
2021/03/19 08:09:30;;;;;;;;;;;;;;;3.07;77.25;99866.81;1723108;82;20217;-78
2021/03/19 08:12:00;;;;;;;;;;;;;;;3.09;77.20;99861.91;1721994;82;20467;-76
2021/03/19 08:15:05;;;;;;;;;;;;;;;3.16;77.21;99864.98;1701215;82;20243;-77
2021/03/19 08:17:47;;;;;;;;;;;;;;;3.24;77.13;99867.17;1719663;82;22157;-75
2021/03/19 08:20:18;;;;;;;;;;;;;;;3.25;76.75;99865.77;1720261;82;20383;-76
2021/03/19 08:23:07;;;;;;;;;;;;;;;3.24;76.56;99866.70;1740136;82;20218;-76
2021/03/19 08:25:44;;;;;;;;;;;;;;;3.23;76.41;99867.63;1706390;82;20314;-76
2021/03/19 08:28:28;;;;;;;;;;;;;;;3.25;76.38;99872.30;1727885;82;20229;-76
2021/03/19 08:31:14;;;;;;;;;;;;;;;3.27;76.27;99869.13;1740505;82;22576;-75
2021/03/19 08:34:08;;;;;;;;;;;;;;;3.30;76.38;99868.13;1727284;82;20355;-74
2021/03/19 08:36:46;;;;;;;;;;;;;;;3.35;76.33;99862.16;1737961;81;20222;-73
2021/03/19 08:39:36;;;;;;;;;;;;;;;3.41;76.08;99872.27;1713866;82;20216;-74
2021/03/19 08:42:05;;;;;;;;;;;;;;;3.36;75.97;99864.69;1719606;82;20235;-78
2021/03/19 08:44:35;;;;;;;;;;;;;;;3.39;76.02;99872.36;1721408;82;22015;-73
2021/03/19 08:47:24;;;;;;;;;;;;;;;3.43;75.90;99867.32;1736004;82;20359;-77
2021/03/19 08:49:53;;;;;;;;;;;;;;;3.50;75.93;99868.28;1740265;81;20285;-75
2021/03/19 08:52:35;;;;;;;;;;;;;;;3.59;75.83;99863.83;1741298;81;20474;-77
2021/03/19 08:55:16;;;;;;;;;;;;;;;3.64;75.62;99870.91;1742469;81;20242;-76
2021/03/19 08:57:46;;;;;;;;;;;;;;;3.67;75.74;99872.06;1713287;83;21890;-75
2021/03/19 09:00:27;;;;;;;;;;;;;;;3.75;75.80;99871.11;1733613;82;21103;-75
2021/03/19 09:02:56;;;;;;;;;;;;;;;3.81;75.60;99870.77;1731024;81;20222;-75
2021/03/19 09:05:31;;;;;;;;;;;;;;;3.83;75.39;99876.73;1734049;81;20559;-75
2021/03/19 09:08:20;;;;;;;;;;;;;;;3.82;75.28;99877.66;1735716;81;20246;-75
2021/03/19 09:10:56;;;;;;;;;;;;;;;3.80;75.15;99876.92;1739607;82;23136;-76
2021/03/19 09:13:23;;;;;;;;;;;;;;;3.82;75.27;99876.36;1742636;82;20684;-76
2021/03/19 09:15:53;;;;;;;;;;;;;;;3.86;75.27;99881.80;1739210;80;20210;-77
2021/03/19 09:18:44;;;;;;;;;;;;;;;3.92;75.33;99889.25;1726669;82;20461;-76
2021/03/19 09:21:36;;;;;;;;;;;;;;;3.99;75.21;99882.73;1738125;81;20216;-75
2021/03/19 09:24:25;;;;;;;;;;;;;;;4.08;75.33;99883.11;1692706;83;22838;-77
2021/03/19 09:26:55;;;;;;;;;;;;;;;4.18;75.27;99884.23;1731153;82;20391;-76
2021/03/19 09:29:25;;;;;;;;;;;;;;;4.28;75.35;99880.97;1718960;82;20228;-76
2021/03/19 09:31:54;;;;;;;;;;;;;;;4.37;74.94;99878.25;1713293;83;21203;-76
2021/03/19 09:34:25;;;;;;;;;;;;;;;4.43;74.84;99882.25;1724587;82;20214;-73
2021/03/19 09:37:14;;;;;;;;;;;;;;;4.51;74.92;99881.30;1737207;82;24095;-76
2021/03/19 09:39:59;;;;;;;;;;;;;;;4.61;74.76;99887.64;1717210;82;20414;-76
2021/03/19 09:42:30;;;;;;;;;;;;;;;4.69;74.70;99883.25;1726273;82;20218;-77
2021/03/19 09:45:04;;;;;;;;;;;;;;;4.77;74.59;99883.61;1743735;80;20496;-77
2021/03/19 09:47:42;;;;;;;;;;;;;;;4.85;74.88;99882.66;1727544;82;20214;-75
2021/03/19 09:50:29;;;;;;;;;;;;;;;4.97;74.70;99878.41;1732711;82;22374;-76
2021/03/19 09:53:03;;;;;;;;;;;;;;;5.11;74.82;99877.88;1725936;82;20926;-75
2021/03/19 09:55:39;;;;;;;;;;;;;;;5.30;74.86;99876.69;1739079;82;20227;-76
2021/03/19 09:58:37;;;;;;;;;;;;;;;5.43;74.60;99880.20;1742151;82;20916;-76
2021/03/19 10:01:14;;;;;;;;;;;;;;;5.50;73.97;99877.98;1742618;82;20238;-75
2021/03/19 10:03:50;;;;;;;;;;;;;;;5.46;73.57;99880.81;1736036;82;22519;-75
2021/03/19 10:06:21;;;;;;;;;;;;;;;5.47;73.24;99873.80;1743120;82;20394;-75
2021/03/19 10:08:50;;;;;;;;;;;;;;;5.41;72.66;99879.47;1737861;81;20120;-75
2021/03/19 10:11:17;;;;;;;;;;;;;;;5.36;72.44;99886.77;1690843;82;20836;-74
2021/03/19 10:13:45;;;;;;;;;;;;;;;5.29;72.18;99880.25;1716816;82;20240;-75
2021/03/19 10:16:24;;;;;;;;;;;;;;;5.28;72.19;99881.19;1732638;82;22081;-75
2021/03/19 10:18:52;;;;;;;;;;;;;;;5.30;72.19;99879.30;1725886;81;20469;-79
2021/03/19 10:21:22;;;;;;;;;;;;;;;5.28;71.82;99874.64;1722354;81;20223;-76
2021/03/19 10:23:59;;;;;;;;;;;;;;;5.16;71.23;99881.52;1740515;81;20486;-76
2021/03/19 10:26:28;;;;;;;;;;;;;;;5.05;71.29;99883.53;1745103;81;20482;-75
2021/03/19 10:29:17;;;;;;;;;;;;;;;5.03;71.41;99880.17;1732608;81;22922;-76
2021/03/19 10:31:49;;;;;;;;;;;;;;;5.02;71.37;99881.55;1740087;81;20802;-76
2021/03/19 10:34:36;;;;;;;;;;;;;;;4.94;71.08;99880.77;1720012;81;20288;-76
2021/03/19 10:37:18;;;;;;;;;;;;;;;4.87;71.02;99876.85;1735169;81;20390;-76
2021/03/19 10:39:55;;;;;;;;;;;;;;;4.75;70.83;99882.41;1751558;80;20206;-78
2021/03/19 10:42:34;;;;;;;;;;;;;;;4.66;71.10;99881.67;1719984;81;21819;-74
2021/03/19 10:45:22;;;;;;;;;;;;;;;4.68;71.23;99878.95;1756218;81;20501;-75
2021/03/19 10:48:10;;;;;;;;;;;;;;;4.71;71.30;99876.13;1747598;81;20276;-75
2021/03/19 10:50:40;;;;;;;;;;;;;;;4.69;71.27;99878.85;1740665;81;20894;-75
2021/03/19 10:53:13;;;;;;;;;;;;;;;4.60;71.07;99881.57;1731596;81;20278;-77
2021/03/19 10:55:42;;;;;;;;;;;;;;;4.48;71.17;99883.66;1736823;81;22127;-75
2021/03/19 10:58:21;;;;;;;;;;;;;;;4.37;71.48;99880.87;1732249;82;20677;-75
2021/03/19 11:00:51;;;;;;;;;;;;;;;4.31;71.87;99879.92;1735803;81;20692;-76
2021/03/19 11:03:47;;;;;;;;;;;;;;;4.26;72.03;99880.69;1730651;81;20310;-75
2021/03/19 11:06:40;;;;;;;;;;;;;;;4.26;72.42;99884.61;1744345;81;20213;-75
2021/03/19 11:09:14;;;;;;;;;;;;;;;4.25;72.61;99877.23;1727198;81;22500;-75
2021/03/19 11:11:45;;;;;;;;;;;;;;;4.31;72.98;99878.62;1716615;82;20367;-76
2021/03/19 11:14:14;;;;;;;;;;;;;;;4.35;73.04;99880.13;1721328;82;20214;-75
2021/03/19 11:16:47;;;;;;;;;;;;;;;4.40;73.17;99880.67;1741315;81;20320;-76
2021/03/19 11:19:21;;;;;;;;;;;;;;;4.43;73.19;99880.47;1742123;81;20218;-75
2021/03/19 11:22:05;;;;;;;;;;;;;;;4.49;73.17;99876.64;1836848;76;20287;-75
2021/03/19 11:24:39;;;;;;;;;;;;;;;4.48;73.07;99883.66;1795197;77;20518;-76
2021/03/19 11:27:23;;;;;;;;;;;;;;;4.55;72.76;99882.34;1801427;79;22029;-75
2021/03/19 11:29:52;;;;;;;;;;;;;;;4.56;72.37;99880.09;1816696;79;20827;-75
2021/03/19 11:32:28;;;;;;;;;;;;;;;4.57;72.16;99883.09;1779626;79;20243;-75
2021/03/19 11:34:57;;;;;;;;;;;;;;;4.64;72.10;99884.02;1796199;79;20238;-76
2021/03/19 11:37:28;;;;;;;;;;;;;;;4.69;71.69;99882.77;1789853;78;20235;-77
2021/03/19 11:40:10;;;;;;;;;;;;;;;4.75;71.91;99884.18;1760759;79;23141;-76
2021/03/19 11:42:45;;;;;;;;;;;;;;;4.89;72.24;99881.04;1784361;79;20251;-75
2021/03/19 11:45:21;;;;;;;;;;;;;;;4.99;71.50;99872.60;1790121;79;21139;-77
2021/03/19 11:47:59;;;;;;;;;;;;;;;4.96;70.82;99871.50;1813524;79;20217;-76
2021/03/19 11:50:31;;;;;;;;;;;;;;;4.95;70.70;99882.44;1785795;79;20265;-78
2021/03/19 11:53:07;;;;;;;;;;;;;;;4.96;70.53;99874.12;1786548;79;22096;-77
2021/03/19 11:55:41;;;;;;;;;;;;;;;4.87;70.14;99880.30;1790295;77;20659;-78
2021/03/19 11:58:10;;;;;;;;;;;;;;;4.68;70.32;99882.88;1797998;77;20491;-79
2021/03/19 12:00:37;;;;;;;;;;;;;;;4.43;70.57;99881.77;1804650;79;21109;-77
2021/03/19 12:03:09;;;;;;;;;;;;;;;4.11;70.82;99896.83;1791230;79;20235;-76
2021/03/19 12:05:36;;;;;;;;;;;;;;;3.81;71.36;99895.58;1813453;79;23207;-77
2021/03/19 12:08:04;;;;;;;;;;;;;;;3.63;71.93;99895.34;1799132;78;20224;-77
2021/03/19 12:10:32;;;;;;;;;;;;;;;3.55;72.53;99895.79;1792635;79;20234;-77
2021/03/19 12:13:02;;;;;;;;;;;;;;;3.48;72.72;99897.09;1786210;79;20512;-78
2021/03/19 12:15:30;;;;;;;;;;;;;;;3.44;73.06;99899.48;1810491;77;20228;-78
2021/03/19 12:17:58;;;;;;;;;;;;;;;3.42;73.27;99898.74;1804596;77;22978;-80
2021/03/19 12:20:25;;;;;;;;;;;;;;;3.42;73.61;99906.11;1783205;79;20379;-79
2021/03/19 12:22:52;;;;;;;;;;;;;;;3.46;73.95;99901.54;1783178;79;20215;-77
2021/03/19 12:25:22;;;;;;;;;;;;;;;3.52;74.19;99901.20;1806744;77;21596;-78
2021/03/19 12:27:50;;;;;;;;;;;;;;;3.53;74.16;99908.10;1811291;79;20211;-76
2021/03/19 12:30:18;;;;;;;;;;;;;;;3.57;74.37;99910.93;1785914;79;22964;-77
2021/03/19 12:32:45;;;;;;;;;;;;;;;3.60;74.54;99906.82;1785783;79;20322;-79
2021/03/19 12:35:15;;;;;;;;;;;;;;;3.64;74.65;99909.63;1790088;79;20208;-78
2021/03/19 12:37:42;;;;;;;;;;;;;;;3.66;74.74;99911.67;1793118;79;20245;-79
2021/03/19 12:40:10;;;;;;;;;;;;;;;3.67;74.88;99909.93;1789918;78;20218;-82
2021/03/19 12:42:38;;;;;;;;;;;;;;;3.69;74.56;99914.59;1796300;79;22037;-79
2021/03/19 12:45:08;;;;;;;;;;;;;;;3.71;74.58;99912.72;1803232;77;20431;-80
2021/03/19 12:47:35;;;;;;;;;;;;;;;3.72;74.57;99914.41;1795355;77;20212;-79
2021/03/19 12:50:07;;;;;;;;;;;;;;;3.73;74.29;99914.77;1822494;77;20315;-82
2021/03/19 12:56:14;;;;;;;;;;;;;;;3.68;74.43;99915.53;1788566;77;22062;-81
2021/03/19 12:59:08;;;;;;;;;;;;;;;3.67;74.48;99921.22;1807774;77;21189;-79
2021/03/19 13:02:10;;;;;;;;;;;;;;;3.65;74.38;99921.74;1803309;78;20246;-78
2021/03/19 13:08:26;;;;;;;;;;;;;;;3.69;74.56;99918.05;1794947;77;20144;-79
2021/03/19 13:10:53;;;;;;;;;;;;;;;3.70;74.40;99913.19;1814226;77;22113;-79
2021/03/19 13:13:21;;;;;;;;;;;;;;;3.70;74.31;99926.25;1812167;78;20282;-79
2021/03/19 13:15:51;;;;;;;;;;;;;;;3.70;74.47;99921.49;1801503;78;20311;-79
2021/03/19 13:18:20;;;;;;;;;;;;;;;3.68;74.64;99917.67;1788296;79;20222;-80
2021/03/19 13:20:47;;;;;;;;;;;;;;;3.67;74.84;99919.07;1792653;79;20662;-79
2021/03/19 13:23:15;;;;;;;;;;;;;;;3.65;74.97;99923.52;1791674;79;21884;-77
2021/03/19 13:25:43;;;;;;;;;;;;;;;3.59;75.07;99920.81;1790032;78;20221;-79
2021/03/19 13:28:10;;;;;;;;;;;;;;;3.58;75.40;99919.13;1785554;79;20584;-78
2021/03/19 13:30:39;;;;;;;;;;;;;;;3.58;75.69;99918.30;1788836;79;20225;-75
2021/03/19 13:33:06;;;;;;;;;;;;;;;3.61;75.79;99918.11;1787657;79;20294;-79
2021/03/19 13:35:37;;;;;;;;;;;;;;;3.63;75.70;99920.16;1786269;79;22064;-75
2021/03/19 13:38:09;;;;;;;;;;;;;;;3.56;75.73;99920.97;1784780;79;20215;-76
2021/03/19 13:40:35;;;;;;;;;;;;;;;3.57;75.85;99921.81;1794603;78;20506;-76
2021/03/19 13:43:02;;;;;;;;;;;;;;;3.53;75.80;99922.46;1817185;77;20495;-75
2021/03/19 13:45:30;;;;;;;;;;;;;;;3.44;75.70;99921.69;1807784;77;20234;-76
2021/03/19 13:47:58;;;;;;;;;;;;;;;3.37;75.75;99919.88;1782313;79;22501;-76
2021/03/19 13:50:26;;;;;;;;;;;;;;;3.41;76.00;99921.40;1771836;79;20933;-76